createdAt,value
2022-08-17T00:02:26.813Z,23.50
2022-08-17T00:04:56.961Z,23.20
2022-08-17T00:07:25.280Z,23.23
2022-08-17T00:09:54.738Z,22.83
2022-08-17T00:12:43.031Z,23.73
2022-08-17T00:15:13.520Z,22.03
2022-08-17T00:17:43.897Z,23.37
2022-08-17T00:20:14.565Z,22.63
2022-08-17T00:22:44.631Z,22.13
2022-08-17T00:25:16.357Z,22.23
2022-08-17T00:27:47.590Z,23.37
2022-08-17T00:30:50.954Z,24.07
2022-08-17T00:33:33.135Z,23.83
2022-08-17T00:36:12.476Z,22.40
2022-08-17T00:38:46.065Z,22.67
2022-08-17T00:41:28.961Z,23.37
2022-08-17T00:44:07.974Z,23.27
2022-08-17T00:46:42.319Z,22.80
2022-08-17T00:49:15.713Z,23.93
2022-08-17T00:51:49.099Z,23.33
2022-08-17T00:54:26.292Z,22.80
2022-08-17T00:57:05.620Z,23.20
2022-08-17T01:00:01.967Z,23.20
2022-08-17T01:02:51.486Z,22.67
2022-08-17T01:05:33.122Z,24.13
2022-08-17T01:08:12.337Z,23.17
2022-08-17T01:11:00.583Z,22.53
2022-08-17T01:13:40.416Z,23.70
2022-08-17T01:16:21.601Z,23.07
2022-08-17T01:19:12.005Z,22.83
2022-08-17T01:22:07.053Z,23.67
2022-08-17T01:24:42.422Z,22.40
2022-08-17T01:27:14.443Z,23.93
2022-08-17T01:29:48.087Z,23.90
2022-08-17T01:32:22.630Z,24.60
2022-08-17T01:34:58.323Z,23.70
2022-08-17T01:37:44.887Z,24.87
2022-08-17T01:40:31.332Z,23.87
2022-08-17T01:43:04.613Z,24.97
2022-08-17T01:45:40.205Z,24.30
2022-08-17T01:48:11.106Z,24.07
2022-08-17T01:50:44.085Z,24.30
2022-08-17T01:53:16.988Z,24.80
2022-08-17T01:55:50.873Z,24.03
2022-08-17T01:58:23.444Z,23.90
2022-08-17T02:01:00.602Z,23.43
2022-08-17T02:03:56.129Z,23.50
2022-08-17T02:06:53.730Z,23.80
2022-08-17T02:09:25.910Z,23.63
2022-08-17T02:11:59.294Z,24.40
2022-08-17T02:14:32.301Z,27.90
2022-08-17T02:17:22.674Z,25.63
2022-08-17T02:19:54.778Z,29.07
2022-08-17T02:22:33.364Z,28.10
2022-08-17T02:25:31.505Z,28.03
2022-08-17T02:28:09.424Z,32.70
2022-08-17T02:31:02.002Z,33.17
2022-08-17T02:33:56.777Z,36.67
2022-08-17T02:36:54.581Z,35.73
2022-08-17T02:39:25.926Z,35.23
2022-08-17T02:42:33.900Z,37.33
2022-08-17T02:45:12.989Z,35.20
2022-08-17T02:47:44.738Z,37.03
2022-08-17T02:50:16.321Z,37.80
2022-08-17T02:52:57.262Z,37.23
2022-08-17T02:55:38.530Z,37.63
2022-08-17T02:58:35.094Z,37.97
2022-08-17T03:01:21.533Z,36.93
2022-08-17T03:03:51.937Z,36.90
2022-08-17T03:06:29.263Z,36.07
2022-08-17T03:08:58.000Z,36.60
2022-08-17T03:11:32.471Z,39.10
2022-08-17T03:14:15.062Z,39.40
2022-08-17T03:16:55.915Z,38.37
2022-08-17T03:19:33.342Z,36.90
2022-08-17T03:22:35.426Z,38.13
2022-08-17T03:25:12.410Z,37.30
2022-08-17T03:27:44.661Z,36.83
2022-08-17T03:30:54.514Z,40.37
2022-08-17T03:33:31.448Z,37.43
2022-08-17T03:36:36.004Z,38.00
2022-08-17T03:39:19.765Z,35.57
2022-08-17T03:41:49.122Z,36.30
2022-08-17T03:44:25.766Z,36.10
2022-08-17T03:47:12.458Z,36.87
2022-08-17T03:50:35.985Z,38.37
2022-08-17T03:53:29.093Z,40.07
2022-08-17T03:56:34.786Z,39.37
2022-08-17T03:59:28.808Z,38.07
2022-08-17T04:02:05.009Z,38.00
2022-08-17T04:04:36.140Z,40.73
2022-08-17T04:07:06.845Z,36.50
2022-08-17T04:09:35.110Z,37.20
2022-08-17T04:12:04.713Z,35.57
2022-08-17T04:15:05.441Z,33.50
2022-08-17T04:17:34.840Z,36.00
2022-08-17T04:20:05.201Z,35.33
2022-08-17T04:22:35.975Z,33.10
2022-08-17T04:25:09.716Z,32.40
2022-08-17T04:27:39.199Z,32.67
2022-08-17T04:30:10.058Z,33.50
2022-08-17T04:33:04.735Z,31.80
2022-08-17T04:35:41.935Z,30.60
2022-08-17T04:38:16.033Z,30.80
2022-08-17T04:41:28.521Z,32.37
2022-08-17T04:43:59.544Z,31.80
2022-08-17T04:46:36.534Z,32.60
2022-08-17T04:49:08.200Z,32.67
2022-08-17T04:51:51.613Z,30.90
2022-08-17T04:54:32.753Z,31.73
2022-08-17T04:57:03.296Z,33.07
2022-08-17T04:59:37.820Z,34.67
2022-08-17T05:02:15.588Z,33.93
2022-08-17T05:04:44.068Z,33.80
2022-08-17T05:07:22.762Z,36.23
2022-08-17T05:09:53.601Z,37.50
2022-08-17T05:12:28.056Z,47.50
2022-08-17T05:14:57.116Z,37.73
2022-08-17T05:17:40.825Z,40.00
2022-08-17T05:20:12.866Z,42.50
2022-08-17T05:23:01.048Z,41.60
2022-08-17T05:25:36.201Z,40.97
2022-08-17T05:28:27.448Z,40.17
2022-08-17T05:31:07.450Z,42.37
2022-08-17T05:33:41.492Z,43.60
2022-08-17T05:36:44.121Z,44.07
2022-08-17T05:39:22.680Z,45.43
2022-08-17T05:41:53.429Z,42.13
2022-08-17T05:44:22.910Z,44.23
2022-08-17T05:47:03.457Z,44.90
2022-08-17T05:49:38.349Z,45.13
2022-08-17T05:52:27.798Z,44.73
2022-08-17T05:55:19.381Z,44.70
2022-08-17T05:58:12.367Z,41.53
2022-08-17T06:01:00.358Z,38.70
2022-08-17T06:03:57.070Z,37.20
2022-08-17T06:06:41.446Z,35.23
2022-08-17T06:09:33.511Z,35.97
2022-08-17T06:12:38.437Z,34.27
2022-08-17T06:15:49.560Z,31.70
2022-08-17T06:18:25.690Z,31.40
2022-08-17T06:20:58.371Z,31.17
2022-08-17T06:23:36.324Z,31.63
2022-08-17T06:26:13.992Z,30.27
2022-08-17T06:28:54.049Z,28.33
2022-08-17T06:31:29.353Z,25.73
2022-08-17T06:34:03.529Z,24.80
2022-08-17T06:36:49.902Z,24.70
2022-08-17T06:39:40.165Z,24.57
2022-08-17T06:43:02.054Z,23.33
2022-08-17T06:45:18.940Z,22.37
2022-08-17T06:48:05.861Z,22.40
2022-08-17T06:50:40.106Z,22.33
2022-08-17T06:53:20.608Z,22.20
2022-08-17T06:55:55.579Z,22.60
2022-08-17T06:58:31.598Z,21.80
2022-08-17T07:01:12.553Z,20.63
2022-08-17T07:03:47.822Z,21.10
2022-08-17T07:06:24.482Z,21.80
2022-08-17T07:09:03.835Z,21.27
2022-08-17T07:11:40.623Z,21.20
2022-08-17T07:14:28.739Z,20.63
2022-08-17T07:17:03.394Z,21.33
2022-08-17T07:19:36.104Z,22.20
2022-08-17T07:22:23.714Z,20.57
2022-08-17T07:24:59.884Z,21.57
2022-08-17T07:27:31.229Z,20.70
2022-08-17T07:30:11.080Z,21.57
2022-08-17T07:32:57.469Z,22.60
2022-08-17T07:35:41.340Z,21.53
2022-08-17T07:38:24.972Z,21.33
2022-08-17T07:41:03.937Z,20.83
2022-08-17T07:43:33.702Z,21.83
2022-08-17T07:46:47.692Z,21.60
2022-08-17T07:49:25.433Z,21.73
2022-08-17T07:52:48.078Z,21.50
2022-08-17T07:54:53.369Z,20.70
2022-08-17T07:57:37.230Z,21.90
2022-08-17T08:00:17.027Z,21.90
2022-08-17T08:02:47.670Z,21.53
2022-08-17T08:05:30.688Z,22.90
2022-08-17T08:08:27.048Z,22.20
2022-08-17T08:11:04.879Z,22.00
2022-08-17T08:13:42.747Z,22.40
2022-08-17T08:16:22.257Z,22.40
2022-08-17T08:18:58.222Z,22.30
2022-08-17T08:21:37.775Z,21.50
2022-08-17T08:24:31.199Z,21.27
2022-08-17T08:27:10.906Z,22.33
2022-08-17T08:29:46.587Z,21.30
2022-08-17T08:32:21.994Z,21.90
2022-08-17T08:35:08.698Z,20.80
2022-08-17T08:37:49.523Z,21.50
2022-08-17T08:40:38.504Z,21.03
2022-08-17T08:43:19.098Z,21.63
2022-08-17T08:45:56.744Z,20.80
2022-08-17T08:49:00.855Z,20.17
2022-08-17T08:51:47.208Z,21.43
2022-08-17T08:54:31.941Z,22.03
2022-08-17T08:57:24.405Z,22.20
2022-08-17T09:00:12.930Z,22.70
2022-08-17T09:03:13.406Z,22.13
2022-08-17T09:06:02.979Z,22.57
2022-08-17T09:08:44.060Z,21.37
2022-08-17T09:11:18.516Z,21.33
2022-08-17T09:14:05.099Z,20.20
2022-08-17T09:16:58.881Z,19.37
2022-08-17T09:19:36.440Z,19.50
2022-08-17T09:22:14.371Z,20.73
2022-08-17T09:24:48.573Z,19.77
2022-08-17T09:27:21.668Z,19.73
2022-08-17T09:29:57.978Z,19.60
2022-08-17T09:32:35.063Z,20.33
2022-08-17T09:35:13.235Z,20.50
2022-08-17T09:37:54.581Z,19.87
2022-08-17T09:40:28.280Z,19.40
2022-08-17T09:43:02.154Z,19.87
2022-08-17T09:45:37.167Z,19.57
2022-08-17T09:48:14.478Z,20.27
2022-08-17T09:51:03.663Z,20.37
2022-08-17T09:53:36.931Z,20.27
2022-08-17T09:56:16.797Z,20.20
2022-08-17T09:59:00.953Z,20.17
2022-08-17T10:01:38.613Z,19.90
2022-08-17T10:04:29.622Z,19.30
2022-08-17T10:07:04.532Z,18.63
2022-08-17T10:09:43.712Z,19.03
2022-08-17T10:12:23.069Z,19.53
2022-08-17T10:15:22.470Z,19.03
2022-08-17T10:18:14.952Z,19.53
2022-08-17T10:20:49.980Z,19.03
2022-08-17T10:23:43.271Z,19.10
2022-08-17T10:26:16.150Z,20.03
2022-08-17T10:28:54.154Z,18.83
2022-08-17T10:31:34.834Z,19.17
2022-08-17T10:34:42.863Z,18.53
2022-08-17T10:37:29.703Z,19.10
2022-08-17T10:40:26.521Z,19.17
2022-08-17T10:43:00.412Z,19.90
2022-08-17T10:45:34.198Z,19.37
2022-08-17T10:48:29.750Z,19.50
2022-08-17T10:51:07.562Z,18.80
2022-08-17T10:54:01.575Z,18.87
2022-08-17T10:56:47.466Z,19.00
2022-08-17T10:59:51.521Z,18.47
2022-08-17T11:02:27.460Z,18.87
2022-08-17T11:05:08.698Z,18.43
2022-08-17T11:08:05.458Z,19.47
2022-08-17T11:10:59.237Z,19.10
2022-08-17T11:13:38.812Z,19.23
2022-08-17T11:16:29.463Z,18.80
2022-08-17T11:19:37.650Z,19.83
2022-08-17T11:22:23.517Z,19.80
2022-08-17T11:24:53.980Z,19.77
2022-08-17T11:27:28.883Z,20.73
2022-08-17T11:30:02.681Z,21.43
2022-08-17T11:32:47.443Z,20.70
2022-08-17T11:35:40.047Z,21.50
2022-08-17T11:38:19.948Z,21.30
2022-08-17T11:41:07.068Z,21.10
2022-08-17T11:44:02.048Z,21.80
2022-08-17T11:46:58.881Z,22.20
2022-08-17T11:50:02.690Z,22.13
2022-08-17T11:52:40.651Z,23.37
2022-08-17T11:55:34.541Z,24.10
2022-08-17T11:58:24.250Z,24.70
2022-08-17T12:00:57.802Z,25.57
2022-08-17T12:03:56.013Z,27.13
2022-08-17T12:06:46.685Z,27.80
2022-08-17T12:09:19.889Z,26.43
2022-08-17T12:12:12.024Z,25.87
2022-08-17T12:17:40.118Z,25.50
2022-08-17T12:20:15.217Z,26.93
2022-08-17T12:22:53.851Z,25.90
2022-08-17T12:25:31.475Z,27.17
2022-08-17T12:28:06.458Z,26.70
2022-08-17T12:30:36.575Z,27.00
2022-08-17T12:33:25.375Z,26.20
2022-08-17T12:36:00.574Z,25.90
2022-08-17T12:38:33.327Z,26.87
2022-08-17T12:41:23.491Z,28.70
2022-08-17T12:44:04.198Z,27.60
2022-08-17T12:46:35.974Z,25.13
2022-08-17T12:49:16.975Z,25.93
2022-08-17T12:51:47.499Z,28.47
2022-08-17T12:54:27.299Z,27.33
2022-08-17T12:56:56.135Z,24.13
2022-08-17T12:59:29.987Z,25.37
2022-08-17T13:01:59.196Z,26.67
2022-08-17T13:04:29.515Z,25.30
2022-08-17T13:07:00.085Z,27.60
2022-08-17T13:09:35.316Z,28.23
2022-08-17T13:12:05.245Z,29.80
2022-08-17T13:14:34.155Z,34.47
2022-08-17T13:17:09.680Z,31.40
2022-08-17T13:19:49.710Z,33.73
2022-08-17T13:22:23.534Z,34.63
2022-08-17T13:24:54.520Z,33.93
2022-08-17T13:27:25.189Z,34.20
2022-08-17T13:29:57.345Z,36.03
2022-08-17T13:32:39.957Z,34.97
2022-08-17T13:35:48.802Z,33.60
2022-08-17T13:38:40.579Z,32.30
2022-08-17T13:41:29.995Z,39.30
2022-08-17T13:43:58.383Z,40.10
2022-08-17T13:46:32.297Z,42.47
2022-08-17T13:49:03.894Z,44.00
2022-08-17T13:51:36.472Z,46.13
2022-08-17T13:54:18.298Z,46.40
2022-08-17T13:56:57.689Z,48.27
2022-08-17T13:59:38.221Z,50.00
2022-08-17T14:02:28.378Z,48.07
2022-08-17T14:04:58.544Z,48.83
2022-08-17T14:07:37.322Z,49.47
2022-08-17T14:10:14.959Z,45.53
2022-08-17T14:12:45.322Z,46.47
2022-08-17T14:15:15.361Z,46.67
2022-08-17T14:17:43.755Z,48.33
2022-08-17T14:20:14.232Z,44.73
2022-08-17T14:22:46.686Z,40.77
2022-08-17T14:25:17.691Z,38.73
2022-08-17T14:27:52.986Z,40.03
2022-08-17T14:30:24.760Z,39.47
2022-08-17T14:32:54.579Z,36.90
2022-08-17T14:35:24.481Z,39.50
2022-08-17T14:37:54.629Z,43.13
2022-08-17T14:40:25.460Z,33.13
2022-08-17T14:42:56.597Z,31.10
2022-08-17T14:45:32.522Z,31.50
2022-08-17T14:48:04.289Z,28.23
2022-08-17T14:50:35.417Z,24.53
2022-08-17T14:53:07.120Z,25.83
2022-08-17T14:55:42.481Z,25.90
2022-08-17T14:58:10.786Z,25.80
2022-08-17T15:00:41.001Z,25.13
2022-08-17T15:03:09.380Z,23.87
2022-08-17T15:05:40.084Z,23.13
2022-08-17T15:08:09.722Z,24.27
2022-08-17T15:10:39.152Z,24.40
2022-08-17T15:13:18.224Z,25.13
2022-08-17T15:15:46.914Z,25.10
2022-08-17T15:18:15.977Z,23.83
2022-08-17T15:20:45.548Z,24.20
2022-08-17T15:23:16.577Z,22.30
2022-08-17T15:25:44.926Z,23.50
2022-08-17T15:28:13.683Z,22.43
2022-08-17T15:30:43.289Z,22.00
2022-08-17T15:33:15.550Z,22.40
2022-08-17T15:35:45.620Z,22.13
2022-08-17T15:38:15.350Z,23.83
2022-08-17T15:40:49.690Z,23.30
2022-08-17T15:43:26.405Z,22.90
2022-08-17T15:46:00.517Z,22.30
2022-08-17T15:48:42.213Z,24.07
2022-08-17T15:51:13.405Z,22.13
2022-08-17T15:53:44.497Z,22.13
2022-08-17T15:56:15.429Z,23.17
2022-08-17T15:58:46.677Z,20.97
2022-08-17T16:01:27.865Z,22.23
2022-08-17T16:04:21.259Z,25.63
2022-08-17T16:06:54.445Z,22.27
2022-08-17T16:09:23.983Z,22.37
2022-08-17T16:11:56.157Z,22.80
2022-08-17T16:14:33.978Z,22.10
2022-08-17T16:17:03.550Z,22.73
2022-08-17T16:19:32.570Z,24.70
2022-08-17T16:22:01.384Z,23.07
2022-08-17T16:24:31.779Z,22.87
2022-08-17T16:27:00.247Z,23.43
2022-08-17T16:29:29.031Z,25.17
2022-08-17T16:31:59.375Z,23.73
2022-08-17T16:34:27.909Z,24.10
2022-08-17T16:36:56.922Z,40.43
2022-08-17T16:39:27.266Z,25.60
2022-08-17T16:41:57.661Z,24.43
2022-08-17T16:44:31.670Z,25.20
2022-08-17T16:47:01.482Z,25.43
2022-08-17T16:49:36.941Z,25.67
2022-08-17T16:52:10.025Z,26.20
2022-08-17T16:54:40.761Z,25.50
2022-08-17T16:57:10.522Z,24.77
2022-08-17T16:59:47.819Z,25.83
2022-08-17T17:02:24.588Z,25.33
2022-08-17T17:04:57.833Z,26.30
2022-08-17T17:07:51.059Z,26.40
2022-08-17T17:10:23.260Z,27.03
2022-08-17T17:13:02.745Z,29.30
2022-08-17T17:15:51.834Z,29.97
2022-08-17T17:18:24.367Z,27.27
2022-08-17T17:20:57.501Z,30.53
2022-08-17T17:23:44.174Z,29.47
2022-08-17T17:26:29.348Z,32.30
2022-08-17T17:29:16.458Z,33.00
2022-08-17T17:31:53.292Z,35.00
2022-08-17T17:34:22.984Z,38.90
2022-08-17T17:36:55.201Z,40.03
2022-08-17T17:39:31.974Z,42.80
2022-08-17T17:42:07.766Z,41.93
2022-08-17T17:44:42.498Z,37.50
2022-08-17T17:47:13.416Z,39.87
2022-08-17T17:49:44.460Z,43.73
2022-08-17T17:52:21.932Z,42.77
2022-08-17T17:55:01.035Z,43.90
2022-08-17T17:57:39.501Z,43.90
2022-08-17T18:00:14.938Z,46.27
2022-08-17T18:03:05.758Z,51.37
2022-08-17T18:05:53.085Z,48.53
2022-08-17T18:08:34.904Z,47.57
2022-08-17T18:11:24.078Z,53.17
2022-08-17T18:14:14.478Z,48.30
2022-08-17T18:16:45.762Z,48.47
2022-08-17T18:19:15.523Z,50.10
2022-08-17T18:21:49.957Z,51.70
2022-08-17T18:24:30.966Z,53.37
2022-08-17T18:27:01.358Z,66.67
2022-08-17T18:29:38.184Z,72.40
2022-08-17T18:32:42.184Z,79.23
2022-08-17T18:35:32.609Z,80.97
2022-08-17T18:38:22.610Z,78.37
2022-08-17T18:41:04.043Z,82.03
2022-08-17T18:43:43.775Z,83.70
2022-08-17T18:46:29.451Z,92.10
2022-08-17T18:49:02.116Z,96.30
2022-08-17T18:51:40.429Z,93.20
2022-08-17T18:54:23.071Z,93.70
2022-08-17T18:56:54.736Z,96.50
2022-08-17T18:59:42.164Z,92.23
2022-08-17T19:02:43.790Z,96.13
2022-08-17T19:05:28.897Z,93.67
2022-08-17T19:08:18.381Z,92.60
2022-08-17T19:10:48.204Z,100.60
2022-08-17T19:13:24.013Z,92.77
2022-08-17T19:16:14.491Z,96.70
2022-08-17T19:18:47.615Z,101.17
2022-08-17T19:21:23.152Z,108.27
2022-08-17T19:23:58.973Z,109.57
2022-08-17T19:26:53.540Z,107.93
2022-08-17T19:29:25.835Z,117.60
2022-08-17T19:31:55.311Z,118.23
2022-08-17T19:34:30.048Z,116.47
2022-08-17T19:37:09.043Z,114.70
2022-08-17T19:39:43.967Z,113.80
2022-08-17T19:42:15.557Z,114.87
2022-08-17T19:44:57.191Z,112.07
2022-08-17T19:47:54.287Z,113.37
2022-08-17T19:50:39.212Z,114.10
2022-08-17T19:53:20.436Z,115.37
2022-08-17T19:55:57.519Z,119.37
2022-08-17T19:58:41.075Z,120.80
2022-08-17T20:01:18.201Z,124.37
2022-08-17T20:04:00.323Z,119.57
2022-08-17T20:06:34.349Z,123.10
2022-08-17T20:09:14.975Z,123.57
2022-08-17T20:11:48.962Z,120.70
2022-08-17T20:14:21.564Z,122.73
2022-08-17T20:16:49.853Z,118.90
2022-08-17T20:19:30.393Z,122.67
2022-08-17T20:22:05.319Z,125.97
2022-08-17T20:24:44.794Z,128.50
2022-08-17T20:27:17.005Z,134.50
2022-08-17T20:30:09.307Z,130.37
2022-08-17T20:32:52.694Z,124.50
2022-08-17T20:35:27.032Z,121.03
2022-08-17T20:38:02.960Z,112.60
2022-08-17T20:40:36.339Z,118.57
2022-08-17T20:43:44.697Z,119.60
2022-08-17T20:46:21.483Z,119.60
2022-08-17T20:48:53.681Z,123.17
2022-08-17T20:51:33.198Z,123.87
2022-08-17T20:54:36.678Z,124.03
2022-08-17T20:57:13.740Z,122.83
2022-08-17T21:00:17.260Z,118.57
2022-08-17T21:02:49.766Z,114.80
2022-08-17T21:05:58.846Z,115.90
2022-08-17T21:08:33.457Z,117.97
2022-08-17T21:11:59.952Z,120.07
2022-08-17T21:14:25.956Z,121.73
2022-08-17T21:17:08.079Z,122.53
2022-08-17T21:20:08.149Z,121.67
2022-08-17T21:23:02.860Z,119.83
2022-08-17T21:25:50.470Z,126.00
2022-08-17T21:28:34.213Z,129.40
2022-08-17T21:31:08.942Z,129.80
2022-08-17T21:33:40.134Z,125.77
2022-08-17T21:36:27.078Z,123.03
2022-08-17T21:39:06.590Z,123.57
2022-08-17T21:41:45.186Z,127.70
2022-08-17T21:44:22.222Z,131.10
2022-08-17T21:46:53.927Z,129.83
2022-08-17T21:49:28.768Z,126.47
2022-08-17T21:51:57.753Z,127.43
2022-08-17T21:54:31.866Z,125.40
2022-08-17T21:57:02.554Z,124.60
2022-08-17T21:59:35.660Z,124.13
2022-08-17T22:02:08.222Z,132.90
2022-08-17T22:04:39.042Z,126.50
2022-08-17T22:07:10.336Z,128.50
2022-08-17T22:09:44.269Z,124.00
2022-08-17T22:12:16.421Z,126.97
2022-08-17T22:14:57.133Z,130.50
2022-08-17T22:17:28.202Z,127.33
2022-08-17T22:20:00.828Z,129.13
2022-08-17T22:22:55.980Z,127.27
2022-08-17T22:25:26.392Z,133.13
2022-08-17T22:27:57.453Z,129.73
2022-08-17T22:30:36.307Z,129.13
2022-08-17T22:33:37.588Z,133.30
2022-08-17T22:36:25.151Z,129.10
2022-08-17T22:38:56.381Z,130.97
2022-08-17T22:41:43.123Z,134.13
2022-08-17T22:44:27.701Z,134.50
2022-08-17T22:47:02.706Z,133.40
2022-08-17T22:49:38.531Z,133.17
2022-08-17T22:52:32.991Z,133.83
2022-08-17T22:55:23.971Z,131.80
2022-08-17T22:58:10.384Z,135.40
2022-08-17T23:00:41.956Z,130.03
2022-08-17T23:03:17.825Z,122.70
2022-08-17T23:06:03.508Z,120.00
2022-08-17T23:08:32.637Z,129.13
2022-08-17T23:11:01.264Z,126.10
2022-08-17T23:13:30.355Z,124.20
2022-08-17T23:15:58.621Z,129.10
2022-08-17T23:18:27.444Z,129.17
2022-08-17T23:20:57.079Z,130.70
2022-08-17T23:23:26.525Z,133.70
2022-08-17T23:25:55.544Z,130.10
2022-08-17T23:28:23.821Z,134.33
2022-08-17T23:30:52.141Z,134.00
2022-08-17T23:33:25.709Z,136.47
2022-08-17T23:35:54.626Z,134.60
2022-08-17T23:38:27.155Z,136.70
2022-08-17T23:40:57.873Z,139.97
2022-08-17T23:46:13.371Z,140.07
2022-08-17T23:48:42.232Z,142.33
2022-08-17T23:51:13.539Z,138.23
2022-08-17T23:53:46.434Z,139.77
2022-08-17T23:56:15.388Z,139.13
2022-08-17T23:58:45.855Z,137.73
